createdAt,value
2023-04-29T00:02:21.759Z,59.98
2023-04-29T00:04:48.976Z,59.65
2023-04-29T00:07:16.274Z,59.34
2023-04-29T00:09:43.343Z,59.13
2023-04-29T00:12:11.022Z,59.12
2023-04-29T00:14:38.091Z,59.09
2023-04-29T00:17:05.694Z,59.25
2023-04-29T00:19:33.795Z,59.02
2023-04-29T00:22:01.407Z,59.29
2023-04-29T00:24:28.466Z,59.52
2023-04-29T00:26:55.534Z,59.59
2023-04-29T00:29:23.751Z,59.51
2023-04-29T00:31:50.994Z,59.75
2023-04-29T00:34:18.107Z,59.78
2023-04-29T00:36:45.128Z,59.81
2023-04-29T00:39:15.283Z,60.05
2023-04-29T00:41:42.784Z,60.08
2023-04-29T00:44:10.408Z,59.95
2023-04-29T00:46:37.544Z,60.10
2023-04-29T00:49:04.950Z,60.25
2023-04-29T00:51:33.370Z,60.27
2023-04-29T00:54:00.337Z,60.12
2023-04-29T00:56:27.682Z,60.26
2023-04-29T00:58:54.964Z,60.25
2023-04-29T01:01:22.215Z,60.25
2023-04-29T01:03:49.378Z,60.23
2023-04-29T01:06:35.221Z,60.17
2023-04-29T01:09:21.977Z,59.85
2023-04-29T01:12:16.572Z,59.90
2023-04-29T01:14:43.929Z,59.83
2023-04-29T01:17:11.882Z,59.96
2023-04-29T01:19:48.699Z,59.90
2023-04-29T01:22:17.822Z,59.85
2023-04-29T01:24:45.065Z,60.24
2023-04-29T01:27:19.284Z,60.18
2023-04-29T01:29:49.458Z,60.87
2023-04-29T01:32:19.191Z,61.14
2023-04-29T01:35:08.567Z,61.37
2023-04-29T01:37:42.770Z,61.65
2023-04-29T01:40:22.949Z,61.89
2023-04-29T01:43:12.063Z,61.90
2023-04-29T01:45:42.330Z,61.98
2023-04-29T01:48:09.370Z,61.96
2023-04-29T01:50:36.687Z,62.30
2023-04-29T01:53:13.984Z,62.52
2023-04-29T01:55:41.296Z,62.67
2023-04-29T01:58:28.271Z,62.61
2023-04-29T02:01:04.280Z,62.63
2023-04-29T02:03:32.396Z,62.73
2023-04-29T02:06:01.471Z,62.66
2023-04-29T02:08:28.973Z,62.84
2023-04-29T02:10:56.492Z,62.81
2023-04-29T02:13:37.891Z,62.80
2023-04-29T02:16:11.986Z,62.91
2023-04-29T02:18:43.034Z,62.91
2023-04-29T02:21:10.174Z,63.00
2023-04-29T02:23:37.731Z,62.77
2023-04-29T02:26:07.624Z,62.78
2023-04-29T02:28:35.206Z,63.20
2023-04-29T02:31:02.435Z,63.28
2023-04-29T02:33:30.714Z,63.42
2023-04-29T02:35:57.705Z,63.33
2023-04-29T02:38:24.712Z,63.34
2023-04-29T02:40:52.303Z,63.55
2023-04-29T02:43:19.276Z,63.33
2023-04-29T02:45:46.508Z,63.26
2023-04-29T02:48:13.573Z,63.42
2023-04-29T02:50:41.131Z,63.62
2023-04-29T02:53:08.109Z,63.65
2023-04-29T02:55:35.098Z,63.91
2023-04-29T02:58:06.876Z,63.99
2023-04-29T03:00:33.856Z,64.13
2023-04-29T03:03:02.063Z,64.15
2023-04-29T03:05:29.504Z,64.15
2023-04-29T03:07:56.590Z,64.43
2023-04-29T03:10:23.670Z,64.42
2023-04-29T03:12:50.699Z,64.47
2023-04-29T03:15:17.732Z,64.43
2023-04-29T03:17:46.665Z,64.73
2023-04-29T03:20:14.116Z,64.75
2023-04-29T03:22:41.127Z,64.97
2023-04-29T03:25:10.884Z,64.89
2023-04-29T03:27:39.781Z,64.83
2023-04-29T03:30:08.031Z,64.78
2023-04-29T03:32:36.174Z,64.91
2023-04-29T03:35:03.945Z,64.82
2023-04-29T03:37:36.300Z,64.92
2023-04-29T03:40:14.486Z,64.86
2023-04-29T03:42:42.235Z,64.79
2023-04-29T03:45:10.154Z,64.81
2023-04-29T03:47:37.277Z,65.00
2023-04-29T03:50:04.904Z,65.04
2023-04-29T03:52:31.936Z,64.91
2023-04-29T03:55:01.564Z,65.07
2023-04-29T03:57:28.623Z,65.03
2023-04-29T03:59:55.956Z,64.80
2023-04-29T04:02:24.141Z,64.89
2023-04-29T04:04:51.470Z,64.61
2023-04-29T04:07:18.613Z,64.49
2023-04-29T04:10:04.264Z,64.52
2023-04-29T04:12:31.773Z,64.55
2023-04-29T04:14:59.308Z,64.42
2023-04-29T04:17:27.242Z,64.43
2023-04-29T04:19:54.610Z,64.30
2023-04-29T04:22:21.866Z,64.17
2023-04-29T04:25:02.885Z,64.04
2023-04-29T04:27:30.317Z,64.04
2023-04-29T04:29:59.277Z,64.17
2023-04-29T04:32:31.791Z,64.10
2023-04-29T04:34:58.902Z,64.13
2023-04-29T04:37:26.576Z,63.80
2023-04-29T04:39:55.405Z,63.63
2023-04-29T04:42:23.389Z,63.52
2023-04-29T04:44:51.747Z,63.60
2023-04-29T04:47:41.807Z,63.89
2023-04-29T04:50:31.712Z,64.10
2023-04-29T04:52:59.817Z,64.43
2023-04-29T04:55:41.885Z,64.67
2023-04-29T04:58:09.115Z,64.68
2023-04-29T05:00:36.914Z,64.43
2023-04-29T05:03:04.467Z,64.56
2023-04-29T05:05:33.678Z,64.56
2023-04-29T05:08:01.294Z,64.02
2023-04-29T05:10:36.864Z,63.50
2023-04-29T05:13:04.934Z,63.34
2023-04-29T05:15:32.579Z,63.17
2023-04-29T05:18:00.605Z,62.57
2023-04-29T05:20:28.075Z,63.06
2023-04-29T05:22:55.506Z,63.17
2023-04-29T05:25:22.836Z,63.42
2023-04-29T05:27:50.027Z,63.60
2023-04-29T05:30:19.205Z,63.43
2023-04-29T05:32:46.716Z,63.80
2023-04-29T05:35:15.765Z,64.07
2023-04-29T05:37:44.446Z,64.03
2023-04-29T05:40:38.323Z,63.65
2023-04-29T05:43:24.566Z,63.90
2023-04-29T05:45:52.485Z,63.66
2023-04-29T05:48:19.498Z,62.95
2023-04-29T05:50:48.367Z,62.89
2023-04-29T05:53:15.611Z,61.93
2023-04-29T05:55:45.238Z,61.32
2023-04-29T05:58:13.247Z,60.54
2023-04-29T06:00:40.787Z,60.16
2023-04-29T06:03:12.793Z,59.67
2023-04-29T06:05:40.699Z,59.79
2023-04-29T06:08:27.123Z,60.17
2023-04-29T06:10:58.698Z,59.75
2023-04-29T06:13:26.669Z,59.26
2023-04-29T06:15:53.666Z,57.86
2023-04-29T06:18:21.063Z,57.35
2023-04-29T06:20:48.087Z,56.80
2023-04-29T06:23:15.164Z,56.31
2023-04-29T06:25:42.507Z,56.28
2023-04-29T06:28:10.688Z,56.06
2023-04-29T06:30:37.851Z,56.73
2023-04-29T06:33:05.157Z,56.36
2023-04-29T06:35:32.365Z,56.78
2023-04-29T06:38:24.719Z,56.42
2023-04-29T06:41:01.909Z,56.16
2023-04-29T06:43:52.196Z,57.00
2023-04-29T06:46:46.751Z,55.98
2023-04-29T06:49:27.569Z,54.95
2023-04-29T06:51:54.682Z,54.43
2023-04-29T06:54:21.944Z,54.68
2023-04-29T06:56:50.644Z,54.20
2023-04-29T06:59:18.143Z,53.13
2023-04-29T07:01:46.551Z,53.19
2023-04-29T07:04:14.801Z,52.85
2023-04-29T07:06:42.261Z,52.76
2023-04-29T07:09:09.318Z,52.36
2023-04-29T07:11:37.193Z,51.68
2023-04-29T07:14:04.184Z,50.42
2023-04-29T07:16:31.374Z,50.52
2023-04-29T07:18:58.396Z,51.07
2023-04-29T07:21:25.465Z,51.09
2023-04-29T07:23:56.316Z,49.79
2023-04-29T07:26:24.349Z,48.87
2023-04-29T07:28:51.486Z,48.98
2023-04-29T07:31:18.499Z,48.59
2023-04-29T07:33:46.700Z,48.93
2023-04-29T07:36:13.749Z,49.41
2023-04-29T07:38:40.923Z,49.21
2023-04-29T07:41:07.960Z,48.85
2023-04-29T07:43:35.021Z,48.60
2023-04-29T07:46:02.089Z,48.95
2023-04-29T07:48:29.174Z,49.48
2023-04-29T07:50:56.229Z,50.09
2023-04-29T07:53:23.214Z,50.47
2023-04-29T07:55:50.986Z,50.40
2023-04-29T07:58:19.371Z,51.26
2023-04-29T08:00:47.480Z,51.60
2023-04-29T08:03:14.671Z,51.23
2023-04-29T08:05:43.543Z,51.69
2023-04-29T08:08:14.510Z,51.97
2023-04-29T08:10:43.363Z,51.68
2023-04-29T08:13:11.563Z,51.33
2023-04-29T08:15:40.827Z,51.25
2023-04-29T08:18:07.864Z,50.42
2023-04-29T08:20:34.871Z,50.73
2023-04-29T08:23:01.950Z,50.35
2023-04-29T08:25:29.373Z,50.55
2023-04-29T08:27:56.398Z,50.14
2023-04-29T08:30:23.577Z,50.85
2023-04-29T08:32:51.058Z,50.69
2023-04-29T08:35:18.259Z,51.21
2023-04-29T08:37:45.344Z,50.56
2023-04-29T08:40:13.283Z,50.27
2023-04-29T08:42:41.047Z,50.23
2023-04-29T08:45:08.453Z,50.30
2023-04-29T08:47:35.603Z,49.69
2023-04-29T08:50:07.113Z,49.11
2023-04-29T08:52:34.344Z,49.79
2023-04-29T08:55:05.790Z,48.51
2023-04-29T08:57:39.813Z,47.93
2023-04-29T09:00:13.435Z,47.31
2023-04-29T09:02:50.406Z,47.20
2023-04-29T09:05:17.555Z,45.63
2023-04-29T09:07:44.675Z,44.76
2023-04-29T09:10:12.030Z,45.42
2023-04-29T09:12:39.064Z,45.98
2023-04-29T09:15:07.060Z,45.59
2023-04-29T09:17:44.571Z,45.03
2023-04-29T09:20:23.820Z,45.10
2023-04-29T09:23:01.755Z,45.56
2023-04-29T09:25:28.902Z,45.48
2023-04-29T09:27:55.936Z,45.22
2023-04-29T09:30:23.425Z,46.50
2023-04-29T09:33:06.930Z,46.58
2023-04-29T09:35:34.173Z,45.62
2023-04-29T09:38:14.874Z,45.82
2023-04-29T09:40:57.715Z,45.10
2023-04-29T09:43:26.522Z,44.82
2023-04-29T09:45:54.862Z,44.97
2023-04-29T09:48:21.931Z,43.79
2023-04-29T09:51:01.692Z,43.26
2023-04-29T09:53:30.096Z,42.80
2023-04-29T09:56:02.039Z,42.92
2023-04-29T09:58:31.114Z,43.24
2023-04-29T10:01:04.130Z,43.20
2023-04-29T10:03:38.614Z,43.30
2023-04-29T10:06:06.988Z,43.68
2023-04-29T10:08:34.505Z,43.20
2023-04-29T10:11:06.125Z,42.62
2023-04-29T10:13:35.171Z,42.52
2023-04-29T10:16:29.562Z,42.65
2023-04-29T10:18:57.464Z,42.24
2023-04-29T10:21:33.322Z,42.05
2023-04-29T10:24:02.127Z,41.84
2023-04-29T10:26:29.767Z,41.00
2023-04-29T10:28:57.157Z,40.12
2023-04-29T10:31:26.463Z,40.15
2023-04-29T10:33:57.591Z,40.81
2023-04-29T10:36:26.408Z,41.61
2023-04-29T10:38:55.288Z,41.19
2023-04-29T10:41:25.819Z,41.14
2023-04-29T10:43:53.124Z,42.21
2023-04-29T10:46:24.090Z,42.89
2023-04-29T10:48:55.913Z,43.26
2023-04-29T10:51:42.436Z,43.53
2023-04-29T10:54:14.326Z,43.51
2023-04-29T10:56:43.261Z,43.55
2023-04-29T10:59:14.100Z,43.99
2023-04-29T11:01:51.352Z,44.69
2023-04-29T11:04:19.898Z,45.03
2023-04-29T11:06:56.721Z,45.68
2023-04-29T11:09:31.240Z,46.14
2023-04-29T11:12:00.634Z,46.57
2023-04-29T11:14:29.677Z,46.86
2023-04-29T11:16:59.075Z,47.09
2023-04-29T11:19:36.914Z,47.48
2023-04-29T11:22:08.729Z,47.66
2023-04-29T11:24:37.071Z,47.91
2023-04-29T11:27:07.305Z,48.32
2023-04-29T11:29:34.316Z,48.64
2023-04-29T11:32:04.845Z,48.07
2023-04-29T11:34:32.505Z,48.04
2023-04-29T11:37:00.387Z,47.86
2023-04-29T11:39:28.295Z,47.79
2023-04-29T11:42:07.907Z,47.68
2023-04-29T11:44:36.149Z,47.97
2023-04-29T11:47:12.708Z,47.98
2023-04-29T11:49:39.737Z,47.19
2023-04-29T11:52:07.901Z,46.61
2023-04-29T11:54:34.942Z,46.18
2023-04-29T11:57:04.952Z,46.17
2023-04-29T11:59:33.208Z,46.48
2023-04-29T12:02:01.113Z,46.37
2023-04-29T12:04:28.989Z,45.50
2023-04-29T12:06:57.668Z,44.55
2023-04-29T12:09:24.831Z,44.58
2023-04-29T12:11:52.723Z,44.83
2023-04-29T12:14:20.766Z,44.90
2023-04-29T12:16:48.205Z,45.17
2023-04-29T12:19:15.268Z,44.96
2023-04-29T12:21:49.709Z,45.39
2023-04-29T12:24:17.096Z,46.12
2023-04-29T12:26:45.604Z,46.29
2023-04-29T12:29:13.474Z,45.26
2023-04-29T12:31:43.267Z,45.20
2023-04-29T12:34:10.580Z,44.65
2023-04-29T12:36:38.076Z,44.78
2023-04-29T12:39:08.530Z,44.15
2023-04-29T12:41:42.898Z,44.80
2023-04-29T12:44:13.203Z,44.28
2023-04-29T12:46:41.549Z,44.72
2023-04-29T12:49:09.010Z,44.90
2023-04-29T12:51:36.888Z,44.20
2023-04-29T12:54:04.667Z,44.04
2023-04-29T12:56:32.071Z,43.85
2023-04-29T12:59:09.952Z,44.16
2023-04-29T13:01:38.676Z,43.54
2023-04-29T13:04:09.234Z,43.57
2023-04-29T13:06:40.100Z,43.91
2023-04-29T13:09:17.001Z,43.85
2023-04-29T13:11:45.584Z,44.07
2023-04-29T13:14:12.597Z,43.26
2023-04-29T13:16:39.771Z,42.46
2023-04-29T13:19:24.729Z,42.50
2023-04-29T13:21:54.407Z,42.21
2023-04-29T13:24:21.572Z,42.62
2023-04-29T13:26:52.382Z,42.85
2023-04-29T13:29:19.960Z,42.49
2023-04-29T13:31:47.015Z,42.95
2023-04-29T13:34:15.883Z,42.44
2023-04-29T13:36:43.050Z,42.30
2023-04-29T13:39:10.637Z,42.38
2023-04-29T13:41:41.261Z,42.46
2023-04-29T13:44:23.887Z,41.74
2023-04-29T13:46:57.631Z,41.80
2023-04-29T13:49:55.740Z,41.43
2023-04-29T13:53:01.561Z,41.37
2023-04-29T13:55:49.458Z,41.16
2023-04-29T14:00:38.085Z,40.83
2023-04-29T14:03:04.278Z,40.49
2023-04-29T14:05:33.542Z,40.57
2023-04-29T14:08:00.895Z,40.86
2023-04-29T14:10:28.002Z,40.61
2023-04-29T14:12:56.253Z,40.76
2023-04-29T14:15:23.334Z,40.92
2023-04-29T14:17:50.561Z,41.19
2023-04-29T14:20:17.798Z,41.89
2023-04-29T14:22:46.003Z,41.59
2023-04-29T14:25:14.077Z,41.07
2023-04-29T14:27:42.030Z,40.77
2023-04-29T14:30:09.632Z,40.86
2023-04-29T14:32:36.893Z,40.98
2023-04-29T14:35:04.134Z,41.54
2023-04-29T14:37:31.927Z,41.87
2023-04-29T14:39:59.161Z,42.05
2023-04-29T14:42:26.283Z,42.11
2023-04-29T14:44:54.561Z,41.85
2023-04-29T14:47:22.172Z,41.55
2023-04-29T14:49:49.238Z,41.98
2023-04-29T14:52:16.344Z,41.92
2023-04-29T14:54:43.348Z,42.61
2023-04-29T14:57:11.032Z,42.31
2023-04-29T14:59:38.191Z,41.86
2023-04-29T15:02:07.831Z,41.32
2023-04-29T15:04:35.950Z,40.98
2023-04-29T15:07:03.768Z,41.15
2023-04-29T15:09:31.178Z,41.61
2023-04-29T15:11:58.503Z,41.94
2023-04-29T15:14:26.430Z,42.17
2023-04-29T15:16:53.690Z,42.66
2023-04-29T15:19:21.258Z,42.87
2023-04-29T15:21:48.309Z,42.42
2023-04-29T15:24:15.411Z,42.87
2023-04-29T15:26:42.613Z,42.98
2023-04-29T15:29:09.670Z,42.96
2023-04-29T15:31:37.065Z,43.16
2023-04-29T15:34:04.148Z,43.58
2023-04-29T15:36:32.797Z,43.30
2023-04-29T15:39:00.418Z,43.32
2023-04-29T15:41:27.503Z,43.61
2023-04-29T15:43:55.411Z,44.09
2023-04-29T15:46:22.735Z,43.79
2023-04-29T15:48:49.814Z,43.76
2023-04-29T15:51:16.885Z,44.01
2023-04-29T15:53:44.802Z,44.18
2023-04-29T15:56:12.246Z,44.70
2023-04-29T15:58:39.334Z,45.04
2023-04-29T16:01:06.829Z,46.33
2023-04-29T16:03:34.689Z,48.59
2023-04-29T16:06:01.909Z,51.80
2023-04-29T16:08:29.691Z,53.28
2023-04-29T16:10:56.892Z,54.53
2023-04-29T16:13:24.021Z,55.46
2023-04-29T16:15:51.117Z,56.44
2023-04-29T16:18:18.367Z,57.67
2023-04-29T16:20:45.761Z,58.63
2023-04-29T16:23:13.271Z,59.24
2023-04-29T16:25:41.671Z,60.18
2023-04-29T16:28:09.725Z,60.85
2023-04-29T16:30:37.053Z,62.05
2023-04-29T16:33:04.793Z,62.64
2023-04-29T16:35:32.786Z,63.34
2023-04-29T16:37:59.889Z,64.11
2023-04-29T16:40:27.936Z,65.07
2023-04-29T16:42:57.023Z,65.72
2023-04-29T16:45:25.320Z,66.57
2023-04-29T16:47:52.771Z,67.81
2023-04-29T16:50:19.867Z,68.24
2023-04-29T16:52:47.057Z,68.57
2023-04-29T16:55:14.314Z,69.03
2023-04-29T16:57:45.409Z,69.33
2023-04-29T17:00:13.294Z,69.54
2023-04-29T17:02:43.252Z,69.44
2023-04-29T17:05:11.255Z,68.96
2023-04-29T17:07:38.651Z,68.91
2023-04-29T17:10:06.705Z,69.29
2023-04-29T17:12:34.028Z,69.58
2023-04-29T17:15:01.275Z,70.49
2023-04-29T17:17:28.471Z,71.84
2023-04-29T17:19:56.637Z,74.70
2023-04-29T17:22:24.147Z,76.76
2023-04-29T17:24:51.484Z,79.59
2023-04-29T17:27:18.623Z,81.90
2023-04-29T17:29:46.412Z,83.72
2023-04-29T17:32:17.314Z,85.78
2023-04-29T17:34:44.305Z,86.80
2023-04-29T17:37:13.147Z,88.81
2023-04-29T17:39:40.815Z,91.08
2023-04-29T17:42:08.020Z,92.43
2023-04-29T17:44:37.616Z,94.22
2023-04-29T17:47:04.664Z,95.10
2023-04-29T17:49:32.710Z,95.91
2023-04-29T17:52:04.069Z,97.05
2023-04-29T17:54:31.853Z,97.96
2023-04-29T17:56:59.253Z,97.91
2023-04-29T17:59:26.446Z,97.75
2023-04-29T18:01:53.767Z,97.57
2023-04-29T18:04:21.125Z,97.74
2023-04-29T18:06:48.286Z,97.79
2023-04-29T18:09:15.737Z,97.99
2023-04-29T18:11:42.847Z,97.72
2023-04-29T18:14:10.203Z,97.06
2023-04-29T18:16:37.798Z,95.81
2023-04-29T18:19:05.224Z,95.42
2023-04-29T18:21:33.017Z,94.96
2023-04-29T18:24:00.183Z,94.85
2023-04-29T18:26:27.470Z,94.26
2023-04-29T18:28:55.386Z,93.86
2023-04-29T18:31:25.176Z,93.41
2023-04-29T18:33:52.533Z,92.87
2023-04-29T18:36:21.496Z,92.36
2023-04-29T18:38:48.708Z,91.84
2023-04-29T18:41:15.940Z,91.13
2023-04-29T18:43:43.066Z,90.86
2023-04-29T18:46:10.253Z,90.66
2023-04-29T18:48:39.075Z,90.40
2023-04-29T18:51:07.307Z,90.34
2023-04-29T18:53:34.685Z,90.25
2023-04-29T18:56:02.024Z,90.22
2023-04-29T18:58:29.368Z,89.91
2023-04-29T19:00:59.934Z,89.49
2023-04-29T19:03:27.433Z,89.12
2023-04-29T19:05:54.561Z,89.05
2023-04-29T19:08:21.707Z,89.11
2023-04-29T19:10:48.767Z,89.05
2023-04-29T19:13:16.384Z,89.50
2023-04-29T19:15:43.874Z,89.64
2023-04-29T19:18:11.290Z,89.85
2023-04-29T19:20:38.398Z,89.72
2023-04-29T19:23:05.840Z,89.98
2023-04-29T19:25:32.938Z,90.99
2023-04-29T19:28:00.363Z,91.49
2023-04-29T19:30:27.509Z,91.94
2023-04-29T19:32:54.791Z,92.67
2023-04-29T19:35:22.110Z,93.36
2023-04-29T19:37:49.634Z,93.83
2023-04-29T19:40:17.170Z,94.85
2023-04-29T19:42:44.940Z,95.70
2023-04-29T19:45:12.972Z,96.60
2023-04-29T19:47:40.209Z,97.65
2023-04-29T19:50:08.026Z,99.04
2023-04-29T19:52:35.211Z,99.30
2023-04-29T19:55:02.433Z,100.00
2023-04-29T19:57:30.772Z,99.94
2023-04-29T19:59:58.015Z,99.92
2023-04-29T20:02:25.297Z,99.91
2023-04-29T20:04:52.786Z,99.98
2023-04-29T20:07:20.084Z,99.49
2023-04-29T20:09:47.949Z,99.62
2023-04-29T20:12:14.953Z,99.60
2023-04-29T20:14:42.056Z,99.81
2023-04-29T20:17:09.251Z,100.00
2023-04-29T20:19:36.701Z,100.00
2023-04-29T20:22:03.981Z,100.00
2023-04-29T20:24:31.088Z,100.00
2023-04-29T20:26:58.561Z,100.00
2023-04-29T20:29:25.792Z,100.00
2023-04-29T20:32:27.866Z,100.00
2023-04-29T20:34:57.735Z,100.00
2023-04-29T20:37:25.066Z,100.00
2023-04-29T20:39:52.292Z,100.00
2023-04-29T20:42:19.840Z,100.00
2023-04-29T20:44:47.291Z,100.00
2023-04-29T20:47:15.591Z,100.00
2023-04-29T20:49:43.433Z,100.00
2023-04-29T20:52:10.848Z,100.00
2023-04-29T20:54:37.936Z,100.00
2023-04-29T20:57:05.904Z,100.00
2023-04-29T20:59:33.636Z,100.00
2023-04-29T21:02:01.008Z,100.00
2023-04-29T21:04:28.363Z,100.00
2023-04-29T21:06:55.565Z,100.00
2023-04-29T21:09:23.914Z,100.00
2023-04-29T21:11:52.273Z,100.00
2023-04-29T21:14:19.271Z,100.00
2023-04-29T21:16:46.356Z,100.00
2023-04-29T21:19:13.608Z,100.00
2023-04-29T21:21:40.645Z,100.00
2023-04-29T21:24:07.705Z,100.00
2023-04-29T21:26:34.695Z,100.00
2023-04-29T21:29:03.393Z,100.00
2023-04-29T21:31:31.000Z,100.00
2023-04-29T21:33:58.059Z,100.00
2023-04-29T21:36:25.071Z,100.00
2023-04-29T21:38:52.950Z,100.00
2023-04-29T21:41:27.589Z,100.00
2023-04-29T21:43:58.318Z,100.00
2023-04-29T21:46:27.833Z,100.00
2023-04-29T21:48:56.448Z,100.00
2023-04-29T21:51:23.437Z,100.00
2023-04-29T21:53:51.037Z,100.00
2023-04-29T21:56:18.185Z,100.00
2023-04-29T21:58:45.551Z,100.00
2023-04-29T22:01:40.504Z,100.00
2023-04-29T22:04:07.643Z,100.00
2023-04-29T22:06:34.910Z,100.00
2023-04-29T22:09:02.439Z,100.00
2023-04-29T22:11:29.504Z,100.00
2023-04-29T22:13:56.562Z,100.00
2023-04-29T22:16:24.319Z,100.00
2023-04-29T22:18:52.111Z,100.00
2023-04-29T22:21:19.170Z,100.00
2023-04-29T22:23:46.681Z,100.00
2023-04-29T22:26:13.703Z,100.00
2023-04-29T22:28:40.806Z,100.00
2023-04-29T22:31:08.003Z,100.00
2023-04-29T22:33:35.545Z,100.00
2023-04-29T22:36:03.076Z,100.00
2023-04-29T22:38:30.072Z,100.00
2023-04-29T22:40:57.062Z,100.00
2023-04-29T22:43:24.209Z,100.00
2023-04-29T22:45:52.744Z,100.00
2023-04-29T22:48:20.071Z,100.00
2023-04-29T22:50:54.012Z,100.00
2023-04-29T22:53:21.350Z,100.00
2023-04-29T22:55:56.141Z,100.00
2023-04-29T22:58:25.584Z,100.00
2023-04-29T23:00:56.925Z,100.00
2023-04-29T23:03:24.233Z,100.00
2023-04-29T23:05:51.431Z,100.00
2023-04-29T23:08:18.477Z,100.00
2023-04-29T23:10:49.778Z,100.00
2023-04-29T23:13:17.222Z,100.00
2023-04-29T23:15:44.928Z,100.00
2023-04-29T23:18:12.053Z,100.00
2023-04-29T23:20:39.055Z,100.00
2023-04-29T23:23:06.178Z,100.00
2023-04-29T23:25:33.226Z,100.00
2023-04-29T23:28:00.901Z,100.00
2023-04-29T23:30:28.175Z,100.00
2023-04-29T23:32:55.441Z,100.00
2023-04-29T23:35:22.652Z,100.00
2023-04-29T23:37:49.683Z,100.00
2023-04-29T23:40:17.005Z,100.00
2023-04-29T23:42:44.076Z,100.00
2023-04-29T23:45:11.183Z,100.00
2023-04-29T23:47:38.321Z,100.00
2023-04-29T23:50:05.993Z,100.00
2023-04-29T23:52:33.111Z,100.00
2023-04-29T23:55:00.241Z,100.00
2023-04-29T23:57:27.242Z,100.00
2023-04-29T23:59:54.419Z,100.00
